Main page
METAR-TAF:

METAR-TAF

Airports :

Chengdu Shuangliu International Airport

Chengdu, China

latitude: 30-40N, longitude: 104-01E, elevation: 508 m

Current weather observation

The report was made 28 minutes ago, at 13:00 UTC
Wind 4 kt from the West, varying between Southwest and Northwest
Temperature 19°C
Humidity 83%
Pressure 1011 hPa
Visibility 10 km or more
Broken clouds at a height of 5000 ft

METAR: ZUUU 201300Z 26002MPS 220V310 9999 BKN050 19/16 Q1011 NOSIG

Time: 21:28 (13:28 UTC)

Forecast

The report was made 5 hours and 21 minutes ago, at 08:07 UTC
Forecast valid from 20 at 12 UTC to 21 at 12 UTC
Wind 6 kt from the West/Southwest
Visibility: 5000 m
Scattered clouds at a height of 4000 ft
mist

TAF: ZUUU 200807Z 2012/2112 25003MPS 5000 BR SCT040 TX28/2107Z TN16/2022Z

Weather observations and forecasts of more than 4000 airports (METAR and TAF reports).

The available stations are represented by yellow and red dots on the map.

Hover mouse over dot to see the name of the station.

Then click to see weather observations and forecasts.

To change the map : click on the green buttons with a black cross to zoom in, on the green button with a dash to zoom out, or on the green arrows for adjacent maps.


METAR-TAF: